Time,TemperatureF,DewpointF,PressureIn,WindDirection,WindDirectionDegrees,WindSpeedMPH,WindSpeedGustMPH,Humidity,HourlyPrecipIn,Conditions,Clouds,dailyrainin,SoftwareType,DateUTC
2013-05-09 00:00:00,70.6,64.8,30.00,SSW,202,2.0,6.0,82,0.00,,,-99.99,WeatherLink 5.6,2013-05-09 05:00:00,
2013-05-09 00:30:00,70.3,65.6,30.00,SSW,202,2.0,7.0,85,0.00,,,-99.99,WeatherLink 5.6,2013-05-09 05:30:00,
2013-05-09 01:00:00,69.9,64.8,29.98,SSW,202,2.0,7.0,84,0.00,,,-99.99,WeatherLink 5.6,2013-05-09 06:00:00,
2013-05-09 01:30:00,69.8,65.1,29.97,SW,225,1.0,6.0,85,0.00,,,-99.99,WeatherLink 5.6,2013-05-09 06:30:00,
2013-05-09 02:00:00,69.4,64.7,29.97,SW,225,1.0,5.0,85,0.00,,,-99.99,WeatherLink 5.6,2013-05-09 07:00:00,
2013-05-09 02:30:00,69.1,64.7,29.96,SW,225,1.0,5.0,86,0.00,,,-99.99,WeatherLink 5.6,2013-05-09 07:30:00,
2013-05-09 03:00:00,68.4,64.4,29.95,SW,225,0.0,4.0,87,0.00,,,-99.99,WeatherLink 5.6,2013-05-09 08:00:00,
2013-05-09 03:30:00,67.9,64.2,29.96,SW,225,0.0,3.0,88,0.00,,,-99.99,WeatherLink 5.6,2013-05-09 08:30:00,
2013-05-09 04:00:00,67.8,64.4,29.96,SW,225,0.0,4.0,89,0.00,,,-99.99,WeatherLink 5.6,2013-05-09 09:00:00,
2013-05-09 04:30:00,67.4,64.4,29.96,WSW,247,0.0,1.0,90,0.00,,,-99.99,WeatherLink 5.6,2013-05-09 09:30:00,
2013-05-09 05:00:00,65.8,63.1,29.97,North,-999,0.0,0.0,91,0.00,,,-99.99,WeatherLink 5.6,2013-05-09 10:00:00,
2013-05-09 05:30:00,65.0,62.6,29.97,North,-999,0.0,0.0,92,0.00,,,-99.99,WeatherLink 5.6,2013-05-09 10:30:00,
2013-05-09 06:00:00,64.2,62.1,29.98,North,-999,0.0,0.0,93,0.00,,,-99.99,WeatherLink 5.6,2013-05-09 11:00:00,
2013-05-09 06:30:00,63.5,61.7,30.00,North,-999,0.0,0.0,94,0.00,,,-99.99,WeatherLink 5.6,2013-05-09 11:30:00,
2013-05-09 07:00:00,63.9,62.4,30.00,North,-999,0.0,0.0,95,0.00,,,-99.99,WeatherLink 5.6,2013-05-09 12:00:00,
2013-05-09 07:30:00,65.3,63.8,30.01,North,-999,0.0,0.0,95,0.00,,,-99.99,WeatherLink 5.6,2013-05-09 12:30:00,
2013-05-09 08:00:00,70.4,67.6,30.03,SSW,202,0.0,7.0,91,0.00,,,-99.99,WeatherLink 5.6,2013-05-09 13:00:00,
2013-05-09 08:30:00,72.7,66.5,30.03,SSW,202,3.0,10.0,81,0.00,,,-99.99,WeatherLink 5.6,2013-05-09 13:30:00,
2013-05-09 09:00:00,73.9,66.6,30.03,SSW,202,3.0,11.0,78,0.00,,,-99.99,WeatherLink 5.6,2013-05-09 14:00:00,
2013-05-09 09:30:00,76.1,66.0,30.03,SSW,202,2.0,9.0,71,0.00,,,-99.99,WeatherLink 5.6,2013-05-09 14:30:00,
2013-05-09 10:00:00,76.8,65.4,30.04,SSW,202,2.0,9.0,68,0.00,,,-99.99,WeatherLink 5.6,2013-05-09 15:00:00,
2013-05-09 10:30:00,76.8,65.0,30.04,SSW,202,3.0,11.0,67,0.00,,,-99.99,WeatherLink 5.6,2013-05-09 15:30:00,
2013-05-09 11:00:00,77.4,65.6,30.05,SSW,202,3.0,12.0,67,0.00,,,-99.99,WeatherLink 5.6,2013-05-09 16:00:00,
2013-05-09 11:30:00,77.7,64.5,30.06,SSW,202,5.0,13.0,64,0.00,,,-99.99,WeatherLink 5.6,2013-05-09 16:30:00,
2013-05-09 12:00:00,78.6,65.4,30.06,SSW,202,4.0,12.0,64,0.00,,,-99.99,WeatherLink 5.6,2013-05-09 17:00:00,
2013-05-09 12:30:00,77.9,63.8,30.05,SSW,202,4.0,14.0,62,0.00,,,-99.99,WeatherLink 5.6,2013-05-09 17:30:00,
2013-05-09 13:00:00,79.2,64.6,30.04,SSW,202,5.0,15.0,61,0.00,,,-99.99,WeatherLink 5.6,2013-05-09 18:00:00,
2013-05-09 13:30:00,78.6,64.9,30.03,SSW,202,5.0,14.0,63,0.00,,,-99.99,WeatherLink 5.6,2013-05-09 18:30:00,
2013-05-09 14:00:00,78.1,64.5,30.03,SSW,202,6.0,15.0,63,0.00,,,-99.99,WeatherLink 5.6,2013-05-09 19:00:00,
2013-05-09 14:30:00,79.4,63.3,30.03,SSW,202,4.0,13.0,58,0.00,,,-99.99,WeatherLink 5.6,2013-05-09 19:30:00,
2013-05-09 15:00:00,77.6,64.9,30.01,SSW,202,6.0,15.0,65,0.00,,,-99.99,WeatherLink 5.6,2013-05-09 20:00:00,
2013-05-09 15:30:00,78.5,65.8,30.01,SSW,202,4.0,15.0,65,0.00,,,-99.99,WeatherLink 5.6,2013-05-09 20:30:00,
2013-05-09 16:00:00,76.5,64.7,30.00,SSW,202,4.0,14.0,67,0.00,,,-99.99,WeatherLink 5.6,2013-05-09 21:00:00,
2013-05-09 16:30:00,77.2,64.1,30.00,SSW,202,4.0,14.0,64,0.00,,,-99.99,WeatherLink 5.6,2013-05-09 21:30:00,
2013-05-09 17:00:00,77.6,63.1,29.99,SSW,202,4.0,14.0,61,0.00,,,-99.99,WeatherLink 5.6,2013-05-09 22:00:00,
2013-05-09 17:30:00,77.2,62.2,29.99,SSW,202,4.0,11.0,60,0.00,,,-99.99,WeatherLink 5.6,2013-05-09 22:30:00,
2013-05-09 18:00:00,76.8,63.2,29.98,SE,135,3.0,10.0,63,0.00,,,-99.99,WeatherLink 5.6,2013-05-09 23:00:00,
2013-05-09 18:30:00,75.3,64.8,29.97,SE,135,3.0,14.0,70,0.00,,,-99.99,WeatherLink 5.6,2013-05-09 23:30:00,
2013-05-09 19:00:00,74.0,65.2,29.98,SE,135,2.0,10.0,74,0.00,,,-99.99,WeatherLink 5.6,2013-05-10 00:00:00,
2013-05-09 19:30:00,73.0,65.4,29.98,SE,135,2.0,10.0,77,0.00,,,-99.99,WeatherLink 5.6,2013-05-10 00:30:00,
2013-05-09 20:00:00,71.8,64.9,29.98,SE,135,0.0,4.0,79,0.00,,,-99.99,WeatherLink 5.6,2013-05-10 01:00:00,
2013-05-09 20:30:00,71.1,64.6,30.00,SE,135,0.0,6.0,80,0.00,,,-99.99,WeatherLink 5.6,2013-05-10 01:30:00,
2013-05-09 21:00:00,70.8,64.7,29.99,SE,135,0.0,5.0,81,0.00,,,-99.99,WeatherLink 5.6,2013-05-10 02:00:00,
2013-05-09 21:30:00,70.8,64.7,29.99,SE,135,1.0,7.0,81,0.00,,,-99.99,WeatherLink 5.6,2013-05-10 02:30:00,
2013-05-09 22:00:00,71.1,65.0,29.99,SE,135,2.0,11.0,81,0.00,,,-99.99,WeatherLink 5.6,2013-05-10 03:00:00,
2013-05-09 22:30:00,71.5,65.4,30.00,SE,135,1.0,7.0,81,0.00,,,-99.99,WeatherLink 5.6,2013-05-10 03:30:00,
2013-05-09 23:00:00,71.6,65.5,30.00,SE,135,1.0,9.0,81,0.00,,,-99.99,WeatherLink 5.6,2013-05-10 04:00:00,
2013-05-09 23:30:00,72.0,65.8,29.97,SE,135,3.0,12.0,81,0.00,,,-99.99,WeatherLink 5.6,2013-05-10 04:30:00,